createdAt,value
2018-04-29T00:01:13.570Z,17.10
2018-04-29T00:03:41.738Z,17.00
2018-04-29T00:06:09.869Z,16.90
2018-04-29T00:08:38.793Z,16.80
2018-04-29T00:11:06.971Z,16.70
2018-04-29T00:13:35.161Z,16.70
2018-04-29T00:16:03.321Z,16.60
2018-04-29T00:18:31.444Z,16.60
2018-04-29T00:21:00.348Z,16.70
2018-04-29T00:23:28.464Z,16.70
2018-04-29T00:25:56.594Z,16.70
2018-04-29T00:28:24.799Z,16.70
2018-04-29T00:30:52.962Z,16.70
2018-04-29T00:33:21.096Z,16.70
2018-04-29T00:35:49.251Z,16.60
2018-04-29T00:38:17.446Z,16.60
2018-04-29T00:40:46.378Z,16.50
2018-04-29T00:43:14.525Z,16.50
2018-04-29T00:45:42.665Z,16.50
2018-04-29T00:48:10.821Z,16.50
2018-04-29T00:50:38.979Z,16.40
2018-04-29T00:53:07.132Z,16.30
2018-04-29T00:55:35.268Z,16.30
2018-04-29T00:58:04.207Z,16.10
2018-04-29T01:00:32.477Z,16.00
2018-04-29T01:03:00.638Z,15.90
2018-04-29T01:05:28.821Z,15.80
2018-04-29T01:07:56.965Z,15.70
2018-04-29T01:10:25.680Z,15.70
2018-04-29T01:12:53.846Z,15.60
2018-04-29T01:15:22.017Z,15.50
2018-04-29T01:17:50.137Z,15.50
2018-04-29T01:20:18.501Z,15.40
2018-04-29T01:22:46.675Z,15.30
2018-04-29T01:25:14.835Z,15.20
2018-04-29T01:27:42.976Z,15.10
2018-04-29T01:30:11.097Z,15.10
2018-04-29T01:32:39.304Z,15.00
2018-04-29T01:35:07.468Z,15.00
2018-04-29T01:37:35.618Z,14.90
2018-04-29T01:40:03.829Z,14.80
2018-04-29T01:42:31.984Z,14.80
2018-04-29T01:45:00.904Z,14.80
2018-04-29T01:47:29.021Z,14.80
2018-04-29T01:49:57.174Z,14.80
2018-04-29T01:52:25.350Z,14.80
2018-04-29T01:54:53.489Z,14.80
2018-04-29T01:57:21.643Z,14.80
2018-04-29T01:59:49.805Z,14.70
2018-04-29T02:02:18.713Z,14.80
2018-04-29T02:04:46.829Z,14.80
2018-04-29T02:07:14.973Z,14.80
2018-04-29T02:09:43.130Z,14.80
2018-04-29T02:12:11.261Z,14.90
2018-04-29T02:14:39.420Z,14.90
2018-04-29T02:17:07.545Z,15.00
2018-04-29T02:19:35.924Z,15.00
2018-04-29T02:22:04.064Z,15.00
2018-04-29T02:24:32.190Z,15.00
2018-04-29T02:27:00.345Z,14.90
2018-04-29T02:29:28.491Z,14.90
2018-04-29T02:31:57.409Z,14.80
2018-04-29T02:34:25.567Z,14.70
2018-04-29T02:36:53.733Z,14.70
2018-04-29T02:39:22.686Z,14.60
2018-04-29T02:41:50.846Z,14.60
2018-04-29T02:44:19.001Z,14.60
2018-04-29T02:46:47.146Z,14.50
2018-04-29T02:49:15.268Z,14.30
2018-04-29T02:51:43.424Z,14.30
2018-04-29T02:54:11.710Z,14.40
2018-04-29T02:56:39.866Z,14.60
2018-04-29T02:59:07.995Z,14.70
2018-04-29T03:01:36.915Z,14.80
2018-04-29T03:04:05.282Z,14.70
2018-04-29T03:06:33.460Z,14.70
2018-04-29T03:09:01.588Z,14.80
2018-04-29T03:11:29.701Z,14.80
2018-04-29T03:13:57.841Z,14.80
2018-04-29T03:16:25.965Z,14.90
2018-04-29T03:18:54.120Z,14.90
2018-04-29T03:21:22.247Z,14.90
2018-04-29T03:23:50.402Z,14.90
2018-04-29T03:26:18.590Z,14.90
2018-04-29T03:28:46.833Z,14.80
2018-04-29T03:31:14.985Z,14.60
2018-04-29T03:33:43.121Z,14.60
2018-04-29T03:36:11.332Z,14.50
2018-04-29T03:38:39.489Z,14.50
2018-04-29T03:41:08.416Z,14.40
2018-04-29T03:43:36.605Z,14.40
2018-04-29T03:46:04.742Z,14.40
2018-04-29T03:48:32.876Z,14.30
2018-04-29T03:51:01.017Z,14.20
2018-04-29T03:53:29.140Z,14.10
2018-04-29T03:55:58.250Z,14.10
2018-04-29T03:58:44.271Z,14.00
2018-04-29T04:01:30.392Z,14.10
2018-04-29T04:03:59.429Z,14.10
2018-04-29T04:06:27.622Z,14.10
2018-04-29T04:08:55.773Z,14.10
2018-04-29T04:11:23.928Z,14.20
2018-04-29T04:13:52.816Z,14.20
2018-04-29T04:16:21.728Z,14.30
2018-04-29T04:18:49.862Z,14.30
2018-04-29T04:21:18.831Z,14.40
2018-04-29T04:23:47.087Z,14.40
2018-04-29T04:26:15.957Z,14.50
2018-04-29T04:28:44.090Z,14.50
2018-04-29T04:31:13.029Z,14.70
2018-04-29T04:33:41.183Z,14.70
2018-04-29T04:36:09.378Z,14.80
2018-04-29T04:38:37.552Z,14.90
2018-04-29T04:41:05.693Z,15.00
2018-04-29T04:43:34.605Z,15.10
2018-04-29T04:46:02.732Z,15.10
2018-04-29T04:48:30.904Z,15.20
2018-04-29T04:50:59.095Z,15.30
2018-04-29T04:53:27.996Z,15.30
2018-04-29T04:55:56.889Z,15.30
2018-04-29T04:58:25.078Z,15.30
2018-04-29T05:00:53.284Z,15.30
2018-04-29T05:03:21.447Z,15.40
2018-04-29T05:05:49.618Z,15.40
2018-04-29T05:08:17.772Z,15.40
2018-04-29T05:10:45.936Z,15.40
2018-04-29T05:13:14.110Z,15.40
2018-04-29T05:15:42.842Z,15.30
2018-04-29T05:18:10.996Z,15.30
2018-04-29T05:20:39.155Z,15.40
2018-04-29T05:23:07.309Z,15.50
2018-04-29T05:25:35.501Z,15.60
2018-04-29T05:28:03.658Z,15.70
2018-04-29T05:30:31.813Z,15.90
2018-04-29T05:33:00.762Z,16.10
2018-04-29T05:35:29.026Z,16.20
2018-04-29T05:37:57.092Z,16.30
2018-04-29T05:40:25.269Z,16.40
2018-04-29T05:42:53.422Z,16.50
2018-04-29T05:45:21.546Z,16.70
2018-04-29T05:47:49.789Z,16.80
2018-04-29T05:50:17.943Z,17.00
2018-04-29T05:52:46.068Z,17.20
2018-04-29T05:55:14.204Z,17.30
2018-04-29T05:57:42.354Z,17.40
2018-04-29T06:00:10.520Z,17.70
2018-04-29T06:02:38.687Z,17.90
2018-04-29T06:05:06.865Z,18.20
2018-04-29T06:07:35.016Z,18.40
2018-04-29T06:10:03.938Z,18.80
2018-04-29T06:12:32.958Z,18.80
2018-04-29T06:15:01.093Z,18.90
2018-04-29T06:17:29.242Z,19.00
2018-04-29T06:19:58.190Z,19.20
2018-04-29T06:22:26.366Z,19.10
2018-04-29T06:24:54.520Z,19.30
2018-04-29T06:27:22.671Z,19.40
2018-04-29T06:29:50.797Z,19.60
2018-04-29T06:32:18.917Z,19.70
2018-04-29T06:34:47.081Z,19.80
2018-04-29T06:37:25.402Z,20.00
2018-04-29T06:39:53.521Z,20.20
2018-04-29T06:42:21.658Z,20.20
2018-04-29T06:44:49.866Z,20.40
2018-04-29T06:47:18.822Z,20.60
2018-04-29T06:49:47.165Z,20.60
2018-04-29T06:52:15.371Z,20.70
2018-04-29T06:54:43.576Z,20.90
2018-04-29T06:57:11.740Z,21.00
2018-04-29T06:59:39.904Z,21.10
2018-04-29T07:02:08.072Z,21.20
2018-04-29T07:04:36.294Z,21.30
2018-04-29T07:07:04.524Z,21.30
2018-04-29T07:09:32.706Z,21.40
2018-04-29T07:12:01.397Z,21.50
2018-04-29T07:14:29.553Z,21.60
2018-04-29T07:16:57.766Z,21.70
2018-04-29T07:19:25.932Z,21.80
2018-04-29T07:21:54.075Z,22.00
2018-04-29T07:24:22.271Z,22.20
2018-04-29T07:26:50.501Z,22.40
2018-04-29T07:29:18.666Z,22.60
2018-04-29T07:31:47.083Z,22.80
2018-04-29T07:34:15.223Z,23.00
2018-04-29T07:36:43.405Z,23.20
2018-04-29T07:39:11.547Z,23.40
2018-04-29T07:41:40.442Z,23.80
2018-04-29T07:44:09.941Z,23.90
2018-04-29T07:46:38.852Z,23.90
2018-04-29T07:49:07.016Z,23.90
2018-04-29T07:51:35.240Z,23.90
2018-04-29T07:54:03.411Z,23.90
2018-04-29T07:56:31.586Z,24.00
2018-04-29T07:58:59.740Z,24.10
2018-04-29T08:01:27.873Z,24.10
2018-04-29T08:03:56.878Z,24.40
2018-04-29T08:06:25.074Z,24.30
2018-04-29T08:08:53.360Z,24.60
2018-04-29T08:11:21.713Z,24.70
2018-04-29T08:13:50.054Z,24.90
2018-04-29T08:16:19.521Z,25.00
2018-04-29T08:18:47.704Z,25.00
2018-04-29T08:21:15.875Z,25.00
2018-04-29T08:23:44.068Z,25.10
2018-04-29T08:26:12.279Z,25.20
2018-04-29T08:28:40.558Z,25.10
2018-04-29T08:31:08.752Z,25.00
2018-04-29T08:33:36.936Z,24.80
2018-04-29T08:36:05.133Z,24.70
2018-04-29T08:38:33.414Z,24.60
2018-04-29T08:41:01.787Z,24.40
2018-04-29T08:43:29.914Z,24.30
2018-04-29T08:45:58.042Z,24.20
2018-04-29T08:48:26.342Z,24.00
2018-04-29T08:50:54.506Z,24.00
2018-04-29T08:53:23.441Z,24.10
2018-04-29T08:55:51.605Z,24.00
2018-04-29T08:58:19.786Z,24.10
2018-04-29T09:00:47.916Z,24.10
2018-04-29T09:03:16.937Z,24.00
2018-04-29T09:05:45.065Z,24.00
2018-04-29T09:08:14.426Z,23.80
2018-04-29T09:10:42.618Z,23.80
2018-04-29T09:13:10.753Z,23.60
2018-04-29T09:15:40.401Z,23.50
2018-04-29T09:18:09.125Z,23.30
2018-04-29T09:20:38.050Z,23.10
2018-04-29T09:23:06.345Z,23.10
2018-04-29T09:25:34.501Z,23.00
2018-04-29T09:28:02.645Z,23.00
2018-04-29T09:30:30.827Z,23.00
2018-04-29T09:32:58.993Z,23.10
2018-04-29T09:35:27.252Z,23.30
2018-04-29T09:37:56.151Z,23.50
2018-04-29T09:40:24.342Z,23.40
2018-04-29T09:42:52.547Z,23.50
2018-04-29T09:45:20.972Z,23.50
2018-04-29T09:47:49.151Z,23.60
2018-04-29T09:50:17.317Z,23.80
2018-04-29T09:52:45.686Z,24.00
2018-04-29T09:55:14.620Z,24.40
2018-04-29T09:57:42.765Z,24.40
2018-04-29T10:00:10.885Z,24.50
2018-04-29T10:02:44.610Z,24.70
2018-04-29T10:05:13.530Z,24.90
2018-04-29T10:07:41.673Z,24.90
2018-04-29T10:10:09.844Z,25.10
2018-04-29T10:12:38.015Z,25.30
2018-04-29T10:15:06.178Z,25.50
2018-04-29T10:17:34.352Z,25.70
2018-04-29T10:20:02.543Z,25.90
2018-04-29T10:22:31.438Z,26.30
2018-04-29T10:25:00.343Z,26.60
2018-04-29T10:27:28.501Z,26.60
2018-04-29T10:29:57.522Z,27.10
2018-04-29T10:32:25.704Z,27.10
2018-04-29T10:34:53.841Z,27.40
2018-04-29T10:37:22.751Z,27.80
2018-04-29T10:39:50.882Z,27.80
2018-04-29T10:42:19.033Z,28.20
2018-04-29T10:44:47.167Z,28.50
2018-04-29T10:47:15.340Z,28.80
2018-04-29T10:49:43.553Z,29.10
2018-04-29T10:52:11.711Z,29.40
2018-04-29T10:54:39.906Z,29.50
2018-04-29T10:57:08.084Z,29.70
2018-04-29T10:59:36.233Z,29.70
2018-04-29T11:02:04.421Z,29.80
2018-04-29T11:04:32.618Z,29.90
2018-04-29T11:07:00.775Z,30.30
2018-04-29T11:09:28.927Z,30.50
2018-04-29T11:11:57.225Z,30.80
2018-04-29T11:14:25.434Z,31.10
2018-04-29T11:16:53.600Z,31.40
2018-04-29T11:19:22.485Z,32.00
2018-04-29T11:21:51.435Z,32.40
2018-04-29T11:24:19.615Z,32.40
2018-04-29T11:26:47.752Z,32.90
2018-04-29T11:29:15.953Z,33.40
2018-04-29T11:31:44.117Z,34.00
2018-04-29T11:34:12.301Z,34.60
2018-04-29T11:36:40.600Z,35.10
2018-04-29T11:39:08.766Z,35.90
2018-04-29T11:41:36.924Z,36.70
2018-04-29T11:44:05.061Z,37.40
2018-04-29T11:46:33.204Z,37.20
2018-04-29T11:49:02.183Z,36.50
2018-04-29T11:51:30.354Z,36.50
2018-04-29T11:53:58.581Z,37.80
2018-04-29T11:56:26.761Z,38.60
2018-04-29T11:58:54.934Z,39.90
2018-04-29T12:01:23.140Z,40.70
2018-04-29T12:03:51.330Z,41.60
2018-04-29T12:06:20.522Z,41.60
2018-04-29T12:08:48.760Z,41.70
2018-04-29T12:11:16.940Z,43.60
2018-04-29T12:13:45.103Z,43.10
2018-04-29T12:16:13.278Z,44.50
2018-04-29T12:18:41.456Z,44.70
2018-04-29T12:21:09.668Z,46.10
2018-04-29T12:23:38.596Z,48.00
2018-04-29T12:26:06.741Z,47.90
2018-04-29T12:28:35.778Z,48.90
2018-04-29T12:31:03.963Z,48.90
2018-04-29T12:33:32.195Z,49.60
2018-04-29T12:36:00.367Z,49.90
2018-04-29T12:38:28.560Z,49.90
2018-04-29T12:40:57.494Z,50.20
2018-04-29T12:43:25.646Z,47.80
2018-04-29T12:45:53.826Z,44.40
2018-04-29T12:48:22.002Z,46.80
2018-04-29T12:50:50.170Z,46.00
2018-04-29T12:53:18.386Z,47.60
2018-04-29T12:55:47.306Z,50.70
2018-04-29T12:58:15.431Z,50.70
2018-04-29T13:00:44.345Z,51.30
2018-04-29T13:03:13.245Z,52.30
2018-04-29T13:05:41.497Z,52.20
2018-04-29T13:08:09.613Z,51.90
2018-04-29T13:10:37.747Z,52.60
2018-04-29T13:13:06.641Z,54.20
2018-04-29T13:15:34.783Z,54.10
2018-04-29T13:18:02.945Z,54.80
2018-04-29T13:20:31.121Z,54.70
2018-04-29T13:22:59.281Z,54.80
2018-04-29T13:25:27.445Z,55.40
2018-04-29T13:27:55.640Z,55.80
2018-04-29T13:30:24.696Z,55.90
2018-04-29T13:32:53.101Z,56.20
2018-04-29T13:35:21.304Z,56.70
2018-04-29T13:37:50.423Z,57.30
2018-04-29T13:40:18.540Z,57.30
2018-04-29T13:42:47.641Z,57.30
2018-04-29T13:45:15.807Z,57.40
2018-04-29T13:47:43.961Z,57.80
2018-04-29T13:50:12.102Z,57.80
2018-04-29T13:52:40.272Z,57.50
2018-04-29T13:55:08.444Z,57.50
2018-04-29T13:57:37.323Z,57.70
2018-04-29T14:00:06.258Z,56.20
2018-04-29T14:02:34.399Z,56.10
2018-04-29T14:05:02.577Z,55.80
2018-04-29T14:07:30.769Z,55.80
2018-04-29T14:09:58.903Z,55.90
2018-04-29T14:12:27.802Z,56.70
2018-04-29T14:14:56.743Z,57.10
2018-04-29T14:17:24.906Z,57.00
2018-04-29T14:19:53.118Z,57.20
2018-04-29T14:22:21.315Z,57.40
2018-04-29T14:24:50.256Z,57.20
2018-04-29T14:27:18.414Z,57.20
2018-04-29T14:29:46.559Z,57.30
2018-04-29T14:32:15.378Z,57.20
2018-04-29T14:34:43.707Z,57.10
2018-04-29T14:37:11.881Z,56.70
2018-04-29T14:39:40.818Z,57.10
2018-04-29T14:42:09.017Z,57.00
2018-04-29T14:44:37.200Z,57.00
2018-04-29T14:47:06.638Z,56.10
2018-04-29T14:49:34.889Z,56.00
2018-04-29T14:52:03.063Z,56.00
2018-04-29T14:54:31.979Z,56.00
2018-04-29T14:57:00.135Z,56.00
2018-04-29T14:59:29.037Z,55.50
2018-04-29T15:01:57.202Z,55.50
2018-04-29T15:04:25.358Z,55.60
2018-04-29T15:06:53.505Z,55.60
2018-04-29T15:09:21.637Z,55.00
2018-04-29T15:11:49.843Z,55.00
2018-04-29T15:14:17.997Z,54.70
2018-04-29T15:16:46.141Z,54.60
2018-04-29T15:19:14.292Z,54.10
2018-04-29T15:21:43.341Z,54.60
2018-04-29T15:24:11.535Z,54.60
2018-04-29T15:26:39.644Z,54.40
2018-04-29T15:29:08.550Z,54.30
2018-04-29T15:31:36.705Z,54.30
2018-04-29T15:34:06.039Z,53.50
2018-04-29T15:36:34.149Z,53.50
2018-04-29T15:39:02.283Z,53.60
2018-04-29T15:41:30.445Z,53.30
2018-04-29T15:43:59.050Z,53.70
2018-04-29T15:46:27.195Z,53.80
2018-04-29T15:48:55.358Z,53.90
2018-04-29T15:51:23.566Z,53.60
2018-04-29T15:53:51.718Z,53.20
2018-04-29T15:56:19.864Z,52.90
2018-04-29T15:58:48.756Z,52.80
2018-04-29T16:01:17.637Z,52.10
2018-04-29T16:03:46.558Z,51.50
2018-04-29T16:06:14.669Z,51.60
2018-04-29T16:08:42.793Z,51.10
2018-04-29T16:11:11.207Z,50.80
2018-04-29T16:13:39.370Z,50.20
2018-04-29T16:16:07.992Z,49.90
2018-04-29T16:18:36.237Z,49.50
2018-04-29T16:21:04.385Z,49.40
2018-04-29T16:23:32.508Z,48.70
2018-04-29T16:26:00.734Z,48.80
2018-04-29T16:28:28.890Z,48.50
2018-04-29T16:30:57.058Z,48.30
2018-04-29T16:33:25.994Z,47.50
2018-04-29T16:35:54.129Z,47.50
2018-04-29T16:38:22.330Z,47.40
2018-04-29T16:40:50.469Z,47.00
2018-04-29T16:43:19.349Z,44.50
2018-04-29T16:45:48.244Z,43.00
2018-04-29T16:48:17.214Z,41.70
2018-04-29T16:50:45.574Z,41.60
2018-04-29T16:53:13.821Z,41.00
2018-04-29T16:55:42.112Z,40.60
2018-04-29T16:58:10.245Z,40.10
2018-04-29T17:00:38.454Z,39.50
2018-04-29T17:03:06.636Z,38.30
2018-04-29T17:05:34.785Z,37.20
2018-04-29T17:08:02.933Z,36.00
2018-04-29T17:10:31.090Z,34.80
2018-04-29T17:13:00.026Z,32.70
2018-04-29T17:15:28.139Z,32.60
2018-04-29T17:17:57.251Z,31.90
2018-04-29T17:20:26.201Z,30.40
2018-04-29T17:22:54.349Z,30.30
2018-04-29T17:25:22.468Z,29.60
2018-04-29T17:27:50.637Z,29.30
2018-04-29T17:30:18.785Z,29.60
2018-04-29T17:32:46.943Z,30.00
2018-04-29T17:35:15.118Z,30.30
2018-04-29T17:37:43.236Z,30.50
2018-04-29T17:40:11.474Z,30.40
2018-04-29T17:42:39.622Z,30.30
2018-04-29T17:45:07.766Z,30.10
2018-04-29T17:47:36.676Z,28.90
2018-04-29T17:50:04.826Z,28.90
2018-04-29T17:52:33.847Z,27.70
2018-04-29T17:55:01.969Z,27.60
2018-04-29T17:57:30.169Z,27.20
2018-04-29T17:59:59.072Z,26.20
2018-04-29T18:02:27.375Z,26.10
2018-04-29T18:04:55.510Z,25.80
2018-04-29T18:07:24.440Z,25.10
2018-04-29T18:09:52.577Z,25.00
2018-04-29T18:12:21.626Z,24.40
2018-04-29T18:14:49.810Z,24.30
2018-04-29T18:17:18.092Z,24.10
2018-04-29T18:19:46.255Z,23.90
2018-04-29T18:22:14.425Z,23.60
2018-04-29T18:24:42.549Z,23.40
2018-04-29T18:27:10.698Z,23.20
2018-04-29T18:29:39.748Z,22.80
2018-04-29T18:32:07.892Z,22.70
2018-04-29T18:34:36.029Z,22.60
2018-04-29T18:37:04.265Z,22.40
2018-04-29T18:39:32.577Z,22.20
2018-04-29T18:42:01.579Z,21.90
2018-04-29T18:44:30.510Z,21.70
2018-04-29T18:46:58.636Z,21.70
2018-04-29T18:49:27.540Z,21.50
2018-04-29T18:51:56.854Z,21.40
2018-04-29T18:54:24.996Z,21.30
2018-04-29T18:56:53.909Z,21.20
2018-04-29T18:59:22.029Z,21.20
2018-04-29T19:01:50.158Z,21.10
2018-04-29T19:04:18.314Z,21.10
2018-04-29T19:06:47.200Z,20.80
2018-04-29T19:09:16.117Z,20.80
2018-04-29T19:11:44.393Z,20.70
2018-04-29T19:14:12.596Z,20.70
2018-04-29T19:16:40.720Z,20.60
2018-04-29T19:19:09.674Z,20.60
2018-04-29T19:21:37.956Z,20.50
2018-04-29T19:24:06.190Z,20.50
2018-04-29T19:26:35.313Z,20.40
2018-04-29T19:29:03.480Z,20.30
2018-04-29T19:31:31.685Z,20.20
2018-04-29T19:33:59.805Z,20.10
2018-04-29T19:36:27.986Z,20.00
2018-04-29T19:38:56.138Z,20.00
2018-04-29T19:41:24.265Z,19.90
2018-04-29T19:43:52.528Z,19.80
2018-04-29T19:46:21.380Z,19.70
2018-04-29T19:48:49.530Z,19.70
2018-04-29T19:51:17.728Z,19.70
2018-04-29T19:53:45.878Z,19.60
2018-04-29T19:56:14.008Z,19.50
2018-04-29T19:58:42.186Z,19.50
2018-04-29T20:01:10.408Z,19.50
2018-04-29T20:03:38.647Z,19.40
2018-04-29T20:06:06.697Z,19.30
2018-04-29T20:08:34.832Z,19.30
2018-04-29T20:11:02.981Z,19.20
2018-04-29T20:13:32.073Z,19.10
2018-04-29T20:16:00.958Z,19.00
2018-04-29T20:18:29.954Z,19.00
2018-04-29T20:20:58.088Z,19.00
2018-04-29T20:23:26.355Z,19.00
2018-04-29T20:25:54.497Z,18.90
2018-04-29T20:28:22.657Z,18.80
2018-04-29T20:30:50.792Z,18.80
2018-04-29T20:33:18.927Z,18.80
2018-04-29T20:35:47.113Z,18.70
2018-04-29T20:38:15.241Z,18.70
2018-04-29T20:40:44.377Z,18.60
2018-04-29T20:43:12.511Z,18.60
2018-04-29T20:45:41.446Z,18.50
2018-04-29T20:48:09.642Z,18.50
2018-04-29T20:50:37.871Z,18.40
2018-04-29T20:53:06.044Z,18.40
2018-04-29T20:55:34.323Z,18.40
2018-04-29T20:58:02.522Z,18.30
2018-04-29T21:00:30.772Z,18.30
2018-04-29T21:02:58.924Z,18.30
2018-04-29T21:05:27.040Z,18.20
2018-04-29T21:07:55.177Z,18.20
2018-04-29T21:10:23.344Z,18.20
2018-04-29T21:12:51.486Z,18.20
2018-04-29T21:15:20.413Z,18.10
2018-04-29T21:17:48.570Z,18.10
2018-04-29T21:20:16.774Z,18.10
2018-04-29T21:22:44.935Z,18.00
2018-04-29T21:25:13.085Z,18.00
2018-04-29T21:27:42.009Z,18.00
2018-04-29T21:30:10.153Z,18.00
2018-04-29T21:32:38.297Z,18.00
2018-04-29T21:35:06.440Z,17.90
2018-04-29T21:37:35.117Z,17.90
2018-04-29T21:40:03.241Z,17.90
2018-04-29T21:42:32.128Z,17.90
2018-04-29T21:45:01.064Z,17.90
2018-04-29T21:47:29.171Z,17.90
2018-04-29T21:49:57.322Z,17.90
2018-04-29T21:52:26.065Z,17.80
2018-04-29T21:54:54.181Z,17.90
2018-04-29T21:57:22.353Z,17.80
2018-04-29T21:59:50.484Z,17.80
2018-04-29T22:02:18.642Z,17.80
2018-04-29T22:04:46.779Z,17.80
2018-04-29T22:07:14.922Z,17.80
2018-04-29T22:09:43.106Z,17.80
2018-04-29T22:12:11.258Z,17.80
2018-04-29T22:14:39.389Z,17.80
2018-04-29T22:17:07.564Z,17.70
2018-04-29T22:19:35.688Z,17.70
2018-04-29T22:22:03.841Z,17.70
2018-04-29T22:24:31.976Z,17.80
2018-04-29T22:27:00.123Z,17.70
2018-04-29T22:29:28.282Z,17.70
2018-04-29T22:31:56.436Z,17.70
2018-04-29T22:34:24.632Z,17.70
2018-04-29T22:36:52.802Z,17.70
2018-04-29T22:39:20.978Z,17.60
2018-04-29T22:41:49.924Z,17.60
2018-04-29T22:44:18.866Z,17.60
2018-04-29T22:46:47.049Z,17.60
2018-04-29T22:49:15.211Z,17.60
2018-04-29T22:51:43.336Z,17.50
2018-04-29T22:54:11.452Z,17.40
2018-04-29T22:56:39.581Z,17.40
2018-04-29T22:59:07.725Z,17.40
2018-04-29T23:01:35.898Z,17.40
2018-04-29T23:04:04.191Z,17.40
2018-04-29T23:06:32.280Z,17.40
2018-04-29T23:09:00.395Z,17.30
2018-04-29T23:11:28.981Z,17.30
2018-04-29T23:13:57.126Z,17.30
2018-04-29T23:16:25.258Z,17.30
2018-04-29T23:18:54.316Z,17.20
2018-04-29T23:21:22.794Z,17.20
2018-04-29T23:23:50.941Z,17.20
2018-04-29T23:26:19.064Z,17.20
2018-04-29T23:28:47.174Z,17.10
2018-04-29T23:31:15.338Z,17.10
2018-04-29T23:33:43.460Z,17.10
2018-04-29T23:36:11.609Z,17.10
2018-04-29T23:38:39.752Z,17.00
2018-04-29T23:41:07.920Z,17.00
2018-04-29T23:43:36.125Z,17.00
2018-04-29T23:46:04.261Z,17.00
2018-04-29T23:48:33.141Z,16.90
2018-04-29T23:51:02.051Z,16.90
2018-04-29T23:53:30.197Z,16.90
2018-04-29T23:55:58.311Z,16.90
2018-04-29T23:58:26.471Z,16.90
